الصفحة الرئيسية
METAR-TAF:

METAR-TAF

مطار :

أولان باتور, منغوليا

مطار جنكيز خان الدولي

دائرة عرض: 47-55N, خط طول: 106-52E, ارتفاع: 1306 متر

مراقبة الطقس الحالي

تاريخ ووقت الإصدار 12 دقيقة قبل الساعة 16:00UTC
ريح 4 عقدة من الجنوب
درجة الحرارة -1°درجة مئوية
الرطوبة 64%
ضغط 1027 hPa
الرؤية 10 كم أو أكثر
الغيوم لا تقل 1500 م ولا وجود لمزنة ركامية السحاب الأسود

METAR: ZMUB 221600Z 17002MPS CAVOK M01/M07 Q1027 NOSIG RMK QFE662.1 61

زمن: 01:12 (16:12 UTC)

توقعات

تاريخ ووقت الإصدار 5ساعات و 32 دقيقة قبل الساعة 10:40UTC
التوقعات صالحة من22 الساعة 12 UTC إلى 23 الساعة 18 UTC
ريح 4 عقدةمن اتجاهات متغيرة
الرؤية 10 كم أو أكثر
الغيوم لا تقل 1500 م ولا وجود لمزنة ركامية السحاب الأسود
أصبح
من 23 الساعة 04 UTC إلى 23 الساعة 06 UTC
ريح 10 عقدة من الجنوب الغربي
غيوم متفرقة على ارتفاع 3300 قدم
أصبح
من 23 الساعة 10 UTC إلى 23 الساعة 12 UTC
ريح 4 عقدةمن اتجاهات متغيرة

TAF: ZMUB 221040Z 2212/2318 VRB02MPS CAVOK TNM02/2222Z TX16/2307Z BECMG 2304/2306 22005MPS SCT033 BECMG 2310/2312 VRB02MPS

أرصاد الطقس والتوقعات من أكثر من 4000 مطار (تقارير الطقس للمطار METAR والتنبؤ بالطقس بالمطارTAF).

المحطات المتاحة هي النقط الصفراء والحمراء على الخريطة.

حرك المؤشر فوق النقطة لمعرفة اسم المحطة.

ثم انقر لمعرفة أرصاد وتوقعات الطقس.

لتغيير الخارطة: اضغط على الأزرار الخضراء مع رمز الصليب الأسود للتكبير. على الزر الأخضر مع شرطة للتصغير، أو على الأسهم الخضراء للخرائط المجاورة.


METAR-TAF: